Aérodrome :
LOGIN :

S'inscrire | Disclaimer

   EN    FR    IT 

 










Légende :    VFR   VFR Marginal   IFR   IFR Intensif   IFR Très Intensif
Visi : 
Plafond : 
>= 8 km
>= 3000ft
5 à 8 km
1000 à 3000 ft
1500m à 5 km
500 à 1000 ft
800 à 1500m
200 à 500 ft
< 800m
< 200 ft
Symboles :   Orages  Brouillard  Fortes neiges  Fortes précipitations  Vent > 20 kt
SIGMETs :   Divers  Orages  Givrage  Turbulence  Onde Orograph.  Cendres Volcan.






- Altitude de l'aérodrome : 390 ft
- Code IATA : NQY


EGHQ - Newquay

DERNIER METAR :
  • 172320Z AUTO 22005KT 9999 SCT018/// 05/04 Q1028

METARs EXPIRÉS :
  • 172250Z AUTO 18007KT 9999 FEW023/// 05/04 Q1028
  • 172220Z AUTO 16005KT 9999 FEW024/// 05/04 Q1028
  • 172150Z AUTO 18004KT 9999 BKN042/// 05/04 Q1028 RERA
  • 172120Z AUTO VRB03KT 9999 BKN018/// 06/04 Q1029 RERA
  • 172050Z AUTO 18003KT 9999 BKN024/// 05/03 Q1029

TAF TAF EGHQ
Valide du 18 à 00h jusqu'au 18 à 09h UTC


172255Z 1800/1809 21006KT 9999 SCT016
PROB30
TEMPO 1800/1809 8000 -RA BKN014



MET'MAP, la Météo Aéronautique d'un coup d'oeil ! - Copyright ORBIFLY Décembre 2007 - Disclaimer

ORBIFLY MET'MAP TEAM :

Programmation & Développement : Alexandra Zaïnal
Sur une idée originale de : Baudouin d'Aumeries
Assistance à la programmation : Marc-Olivier Méhu
Soutien technique & logistique : Manuel Goepfert

Contact : metmap@orbifly.com




SOURCES & CREDITS :

   NOAA